createdAt,value
2018-06-28T00:00:10.546Z,18.45
2018-06-28T00:02:38.686Z,18.42
2018-06-28T00:05:06.890Z,18.40
2018-06-28T00:07:35.331Z,18.39
2018-06-28T00:10:03.650Z,18.41
2018-06-28T00:12:31.776Z,18.43
2018-06-28T00:15:00.218Z,18.42
2018-06-28T00:17:28.341Z,18.41
2018-06-28T00:19:56.786Z,18.38
2018-06-28T00:22:25.253Z,18.35
2018-06-28T00:24:53.340Z,18.32
2018-06-28T00:27:21.459Z,18.28
2018-06-28T00:29:49.898Z,18.25
2018-06-28T00:32:18.353Z,18.20
2018-06-28T00:34:46.445Z,18.15
2018-06-28T00:37:14.565Z,18.11
2018-06-28T00:39:42.710Z,18.06
2018-06-28T00:42:11.159Z,18.02
2018-06-28T00:44:39.592Z,17.97
2018-06-28T00:47:07.718Z,17.91
2018-06-28T00:49:36.174Z,17.85
2018-06-28T00:52:04.283Z,17.79
2018-06-28T00:54:32.753Z,17.73
2018-06-28T00:57:01.246Z,17.69
2018-06-28T00:59:29.533Z,17.62
2018-06-28T01:01:57.972Z,17.55
2018-06-28T01:04:26.309Z,17.46
2018-06-28T01:06:54.837Z,17.39
2018-06-28T01:09:23.289Z,17.32
2018-06-28T01:11:51.817Z,17.26
2018-06-28T01:14:20.265Z,17.19
2018-06-28T01:16:48.736Z,17.12
2018-06-28T01:19:16.869Z,17.06
2018-06-28T01:21:45.325Z,17.03
2018-06-28T01:24:13.461Z,16.97
2018-06-28T01:26:42.009Z,16.91
2018-06-28T01:29:10.133Z,16.90
2018-06-28T01:31:38.818Z,16.90
2018-06-28T01:34:06.955Z,16.89
2018-06-28T01:36:36.389Z,16.88
2018-06-28T01:39:07.877Z,16.88
2018-06-28T01:41:47.657Z,16.85
2018-06-28T01:44:16.114Z,16.80
2018-06-28T01:46:44.599Z,16.75
2018-06-28T01:49:13.218Z,16.71
2018-06-28T01:51:41.857Z,16.72
2018-06-28T01:54:10.309Z,16.68
2018-06-28T01:56:38.410Z,16.63
2018-06-28T01:59:07.315Z,16.60
2018-06-28T02:01:35.758Z,16.56
2018-06-28T02:04:10.354Z,16.48
2018-06-28T02:06:38.994Z,16.39
2018-06-28T02:09:08.761Z,16.33
2018-06-28T02:11:37.342Z,16.30
2018-06-28T02:14:05.533Z,16.26
2018-06-28T02:16:33.982Z,16.24
2018-06-28T02:19:02.105Z,16.17
2018-06-28T02:21:30.554Z,16.13
2018-06-28T02:23:59.023Z,16.08
2018-06-28T02:26:27.701Z,16.00
2018-06-28T02:28:56.153Z,15.94
2018-06-28T02:31:24.602Z,15.89
2018-06-28T02:33:53.305Z,15.84
2018-06-28T02:36:22.034Z,15.81
2018-06-28T02:38:50.483Z,15.79
2018-06-28T02:41:18.586Z,15.75
2018-06-28T02:43:46.930Z,15.70
2018-06-28T02:46:15.035Z,15.67
2018-06-28T02:48:43.206Z,15.64
2018-06-28T02:51:11.638Z,15.62
2018-06-28T02:53:39.985Z,15.59
2018-06-28T02:56:08.086Z,15.54
2018-06-28T02:58:36.761Z,15.52
2018-06-28T03:01:05.065Z,15.48
2018-06-28T03:03:33.729Z,15.47
2018-06-28T03:06:02.342Z,15.45
2018-06-28T03:08:30.473Z,15.41
2018-06-28T03:10:58.797Z,15.36
2018-06-28T03:13:26.905Z,15.33
2018-06-28T03:15:55.246Z,15.29
2018-06-28T03:18:23.918Z,15.24
2018-06-28T03:20:52.240Z,15.19
2018-06-28T03:23:20.352Z,15.14
2018-06-28T03:25:49.045Z,15.09
2018-06-28T03:28:17.493Z,15.04
2018-06-28T03:30:45.652Z,15.02
2018-06-28T03:33:14.279Z,15.00
2018-06-28T03:35:42.728Z,14.98
2018-06-28T03:38:11.214Z,14.97
2018-06-28T03:40:39.877Z,14.95
2018-06-28T03:43:08.509Z,14.96
2018-06-28T03:45:37.203Z,14.97
2018-06-28T03:48:05.317Z,14.96
2018-06-28T03:50:33.774Z,14.97
2018-06-28T03:53:02.309Z,14.99
2018-06-28T03:55:30.758Z,15.01
2018-06-28T03:57:59.782Z,15.02
2018-06-28T04:00:27.962Z,15.04
2018-06-28T04:02:56.066Z,15.10
2018-06-28T04:05:24.189Z,15.19
2018-06-28T04:07:52.297Z,15.32
2018-06-28T04:10:20.638Z,15.49
2018-06-28T04:12:49.130Z,15.69
2018-06-28T04:15:17.606Z,15.85
2018-06-28T04:17:45.701Z,15.96
2018-06-28T04:20:14.182Z,16.08
2018-06-28T04:22:42.543Z,16.19
2018-06-28T04:25:11.006Z,16.32
2018-06-28T04:27:39.471Z,16.48
2018-06-28T04:30:07.924Z,16.67
2018-06-28T04:32:36.238Z,16.83
2018-06-28T04:35:04.419Z,16.95
2018-06-28T04:37:33.102Z,17.07
2018-06-28T04:40:01.553Z,17.20
2018-06-28T04:42:29.999Z,17.32
2018-06-28T04:44:58.674Z,17.43
2018-06-28T04:47:27.093Z,17.52
2018-06-28T04:49:55.266Z,17.61
2018-06-28T04:52:23.533Z,17.69
2018-06-28T04:54:51.641Z,17.80
2018-06-28T04:57:20.338Z,17.91
2018-06-28T04:59:48.463Z,18.06
2018-06-28T05:02:17.122Z,18.17
2018-06-28T05:04:45.805Z,18.22
2018-06-28T05:07:13.942Z,18.26
2018-06-28T05:09:50.130Z,18.37
2018-06-28T05:12:18.598Z,18.36
2018-06-28T05:14:46.783Z,18.31
2018-06-28T05:17:15.366Z,18.31
2018-06-28T05:19:43.815Z,18.33
2018-06-28T05:22:11.945Z,18.36
2018-06-28T05:24:40.402Z,18.44
2018-06-28T05:27:09.042Z,18.49
2018-06-28T05:29:37.511Z,18.52
2018-06-28T05:32:05.995Z,18.57
2018-06-28T05:34:34.113Z,18.70
2018-06-28T05:37:02.777Z,18.87
2018-06-28T05:39:31.217Z,19.00
2018-06-28T05:41:59.674Z,19.11
2018-06-28T05:44:28.399Z,19.26
2018-06-28T05:46:56.862Z,19.44
2018-06-28T05:49:25.546Z,19.63
2018-06-28T05:51:54.213Z,19.73
2018-06-28T05:54:22.656Z,19.85
2018-06-28T05:56:51.329Z,19.95
2018-06-28T05:59:19.612Z,20.10
2018-06-28T06:01:48.061Z,20.31
2018-06-28T06:04:16.185Z,20.43
2018-06-28T06:06:44.565Z,20.50
2018-06-28T06:09:12.694Z,20.54
2018-06-28T06:11:40.811Z,20.53
2018-06-28T06:14:09.146Z,20.57
2018-06-28T06:16:37.642Z,20.71
2018-06-28T06:19:06.082Z,20.88
2018-06-28T06:21:34.365Z,21.08
2018-06-28T06:24:02.825Z,21.28
2018-06-28T06:26:31.296Z,21.41
2018-06-28T06:28:59.389Z,21.54
2018-06-28T06:31:28.090Z,21.65
2018-06-28T06:33:56.606Z,21.72
2018-06-28T06:36:25.111Z,21.82
2018-06-28T06:38:53.378Z,21.92
2018-06-28T06:41:21.932Z,21.93
2018-06-28T06:43:50.661Z,22.00
2018-06-28T06:46:18.749Z,22.19
2018-06-28T06:48:46.960Z,22.35
2018-06-28T06:51:15.195Z,22.54
2018-06-28T06:53:43.730Z,22.75
2018-06-28T06:56:12.082Z,22.97
2018-06-28T06:58:40.218Z,23.19
2018-06-28T07:01:08.343Z,23.30
2018-06-28T07:03:36.869Z,23.44
2018-06-28T07:06:05.444Z,23.62
2018-06-28T07:08:33.895Z,23.76
2018-06-28T07:11:02.510Z,23.87
2018-06-28T07:13:30.957Z,23.99
2018-06-28T07:15:59.091Z,24.13
2018-06-28T07:18:27.978Z,24.14
2018-06-28T07:20:56.078Z,24.15
2018-06-28T07:23:24.523Z,24.24
2018-06-28T07:25:53.213Z,24.36
2018-06-28T07:28:21.622Z,24.50
2018-06-28T07:30:49.921Z,24.64
2018-06-28T07:33:18.610Z,24.79
2018-06-28T07:35:47.079Z,24.95
2018-06-28T07:38:15.950Z,24.96
2018-06-28T07:40:44.410Z,24.88
2018-06-28T07:43:12.897Z,24.82
2018-06-28T07:45:41.614Z,24.96
2018-06-28T07:48:10.277Z,25.20
2018-06-28T07:50:38.933Z,25.41
2018-06-28T07:53:07.055Z,25.60
2018-06-28T07:55:35.360Z,25.78
2018-06-28T07:58:04.022Z,25.95
2018-06-28T08:00:32.294Z,26.09
2018-06-28T08:03:00.651Z,26.12
2018-06-28T08:05:29.185Z,26.01
2018-06-28T08:07:57.637Z,26.10
2018-06-28T08:10:25.996Z,26.17
2018-06-28T08:12:54.709Z,26.29
2018-06-28T08:15:23.151Z,26.49
2018-06-28T08:17:51.278Z,26.68
2018-06-28T08:20:19.388Z,26.89
2018-06-28T08:22:47.905Z,27.04
2018-06-28T08:25:16.557Z,27.09
2018-06-28T08:27:45.019Z,26.96
2018-06-28T08:30:13.215Z,26.93
2018-06-28T08:32:41.646Z,27.06
2018-06-28T08:35:09.774Z,27.22
2018-06-28T08:37:38.219Z,27.40
2018-06-28T08:40:06.332Z,27.53
2018-06-28T08:42:34.789Z,27.44
2018-06-28T08:45:03.345Z,27.42
2018-06-28T08:47:31.790Z,27.55
2018-06-28T08:50:00.607Z,27.79
2018-06-28T08:52:29.073Z,28.01
2018-06-28T08:54:57.757Z,28.21
2018-06-28T08:57:25.869Z,28.36
2018-06-28T08:59:54.012Z,28.27
2018-06-28T09:02:22.120Z,28.06
2018-06-28T09:04:50.248Z,27.95
2018-06-28T09:07:18.946Z,27.88
2018-06-28T09:09:47.267Z,27.96
2018-06-28T09:12:15.945Z,28.16
2018-06-28T09:14:44.076Z,28.39
2018-06-28T09:17:12.194Z,28.55
2018-06-28T09:19:40.853Z,28.51
2018-06-28T09:22:09.543Z,28.44
2018-06-28T09:24:38.111Z,28.53
2018-06-28T09:27:06.221Z,28.67
2018-06-28T09:29:34.738Z,28.93
2018-06-28T09:32:03.170Z,29.13
2018-06-28T09:34:31.292Z,29.30
2018-06-28T09:36:59.900Z,29.42
2018-06-28T09:39:28.594Z,29.35
2018-06-28T09:41:57.035Z,29.28
2018-06-28T09:44:25.141Z,29.33
2018-06-28T09:46:53.822Z,29.55
2018-06-28T09:49:21.941Z,29.79
2018-06-28T09:51:50.049Z,29.89
2018-06-28T09:54:18.206Z,29.91
2018-06-28T09:56:46.646Z,29.89
2018-06-28T09:59:15.068Z,29.97
2018-06-28T10:01:43.517Z,29.90
2018-06-28T10:04:11.669Z,29.94
2018-06-28T10:06:39.770Z,30.14
2018-06-28T10:09:08.703Z,30.20
2018-06-28T10:11:37.150Z,30.20
2018-06-28T10:14:05.284Z,30.32
2018-06-28T10:16:33.798Z,30.49
2018-06-28T10:19:02.281Z,30.63
2018-06-28T10:21:30.830Z,30.78
2018-06-28T10:23:59.265Z,30.95
2018-06-28T10:26:27.974Z,30.98
2018-06-28T10:28:56.464Z,30.88
2018-06-28T10:31:24.944Z,30.85
2018-06-28T10:33:53.641Z,30.96
2018-06-28T10:36:22.353Z,31.08
2018-06-28T10:38:50.796Z,31.13
2018-06-28T10:41:18.929Z,31.15
2018-06-28T10:43:47.359Z,31.19
2018-06-28T10:46:15.807Z,31.28
2018-06-28T10:48:44.277Z,31.23
2018-06-28T10:51:12.743Z,31.10
2018-06-28T10:53:40.818Z,30.94
2018-06-28T10:56:08.933Z,30.95
2018-06-28T10:58:37.050Z,31.21
2018-06-28T11:01:05.548Z,31.50
2018-06-28T11:03:33.990Z,31.69
2018-06-28T11:06:02.420Z,31.77
2018-06-28T11:08:30.849Z,31.79
2018-06-28T11:10:59.217Z,31.76
2018-06-28T11:13:27.313Z,31.62
2018-06-28T11:15:55.630Z,31.46
2018-06-28T11:18:23.729Z,31.42
2018-06-28T11:20:51.874Z,31.60
2018-06-28T11:23:20.329Z,31.67
2018-06-28T11:25:48.772Z,31.66
2018-06-28T11:28:17.192Z,31.65
2018-06-28T11:30:45.657Z,31.68
2018-06-28T11:33:13.753Z,31.69
2018-06-28T11:35:42.221Z,31.71
2018-06-28T11:38:10.668Z,31.82
2018-06-28T11:40:38.802Z,31.99
2018-06-28T11:43:07.253Z,32.17
2018-06-28T11:45:35.474Z,32.35
2018-06-28T11:48:04.133Z,32.47
2018-06-28T11:50:32.592Z,32.64
2018-06-28T11:53:01.035Z,32.69
2018-06-28T11:55:29.145Z,32.63
2018-06-28T11:57:57.265Z,32.57
2018-06-28T12:00:25.926Z,32.45
2018-06-28T12:02:54.222Z,32.23
2018-06-28T12:05:22.341Z,32.15
2018-06-28T12:07:50.981Z,32.23
2018-06-28T12:10:19.442Z,32.39
2018-06-28T12:12:47.600Z,32.54
2018-06-28T12:15:16.252Z,32.73
2018-06-28T12:17:44.900Z,32.94
2018-06-28T12:20:13.544Z,33.15
2018-06-28T12:22:41.650Z,33.16
2018-06-28T12:25:10.118Z,33.07
2018-06-28T12:27:38.284Z,32.84
2018-06-28T12:30:06.625Z,32.68
2018-06-28T12:32:35.081Z,32.71
2018-06-28T12:35:03.215Z,32.76
2018-06-28T12:37:31.623Z,32.88
2018-06-28T12:39:59.974Z,33.05
2018-06-28T12:42:28.444Z,33.25
2018-06-28T12:44:57.094Z,33.28
2018-06-28T12:47:39.835Z,33.32
2018-06-28T12:50:08.414Z,33.37
2018-06-28T12:52:41.821Z,33.33
2018-06-28T12:55:09.929Z,33.25
2018-06-28T12:57:38.050Z,33.15
2018-06-28T13:00:06.826Z,33.03
2018-06-28T13:02:35.333Z,32.77
2018-06-28T13:05:04.018Z,32.81
2018-06-28T13:07:32.378Z,33.07
2018-06-28T13:10:00.489Z,32.81
2018-06-28T13:12:28.954Z,32.65
2018-06-28T13:14:57.067Z,32.65
2018-06-28T13:17:25.201Z,32.66
2018-06-28T13:19:53.356Z,32.61
2018-06-28T13:22:21.968Z,32.55
2018-06-28T13:24:50.659Z,32.68
2018-06-28T13:27:18.930Z,32.79
2018-06-28T13:29:47.601Z,32.94
2018-06-28T13:32:15.700Z,33.05
2018-06-28T13:34:43.841Z,33.14
2018-06-28T13:37:11.964Z,33.30
2018-06-28T13:39:40.920Z,33.45
2018-06-28T13:42:09.815Z,33.51
2018-06-28T13:44:38.332Z,33.46
2018-06-28T13:47:06.466Z,33.33
2018-06-28T13:49:34.837Z,33.18
2018-06-28T13:52:02.955Z,32.93
2018-06-28T13:54:31.306Z,32.81
2018-06-28T13:56:59.954Z,32.81
2018-06-28T13:59:28.592Z,32.82
2018-06-28T14:01:56.958Z,32.83
2018-06-28T14:04:25.086Z,32.74
2018-06-28T14:06:53.625Z,32.65
2018-06-28T14:09:22.403Z,32.71
2018-06-28T14:11:51.222Z,32.80
2018-06-28T14:14:19.322Z,32.87
2018-06-28T14:16:47.769Z,32.96
2018-06-28T14:19:15.878Z,32.99
2018-06-28T14:21:44.330Z,32.87
2018-06-28T14:24:12.768Z,32.79
2018-06-28T14:26:41.121Z,32.73
2018-06-28T14:29:09.645Z,32.72
2018-06-28T14:31:37.969Z,32.75
2018-06-28T14:34:06.417Z,32.79
2018-06-28T14:36:34.740Z,32.77
2018-06-28T14:39:02.881Z,32.76
2018-06-28T14:41:31.025Z,32.74
2018-06-28T14:43:59.636Z,32.70
2018-06-28T14:46:27.757Z,32.76
2018-06-28T14:48:55.865Z,32.80
2018-06-28T14:51:23.986Z,32.81
2018-06-28T14:53:52.117Z,32.82
2018-06-28T14:56:20.423Z,32.78
2018-06-28T14:58:48.878Z,32.76
2018-06-28T15:01:16.991Z,32.75
2018-06-28T15:03:45.636Z,32.75
2018-06-28T15:06:14.090Z,32.67
2018-06-28T15:08:42.526Z,32.64
2018-06-28T15:11:10.637Z,32.74
2018-06-28T15:13:39.086Z,32.81
2018-06-28T15:16:07.462Z,32.79
2018-06-28T15:18:35.849Z,32.75
2018-06-28T15:21:03.967Z,32.70
2018-06-28T15:23:32.065Z,32.70
2018-06-28T15:26:00.418Z,32.67
2018-06-28T15:28:29.133Z,32.65
2018-06-28T15:30:57.241Z,32.58
2018-06-28T15:33:25.650Z,32.41
2018-06-28T15:35:54.249Z,32.29
2018-06-28T15:38:22.475Z,32.25
2018-06-28T15:40:51.162Z,32.26
2018-06-28T15:43:19.669Z,32.22
2018-06-28T15:45:48.180Z,32.12
2018-06-28T15:48:16.790Z,32.01
2018-06-28T15:50:45.218Z,31.91
2018-06-28T15:53:13.660Z,31.86
2018-06-28T15:55:42.260Z,31.87
2018-06-28T15:58:10.717Z,31.89
2018-06-28T16:00:39.162Z,31.90
2018-06-28T16:03:07.613Z,31.94
2018-06-28T16:05:36.250Z,31.99
2018-06-28T16:08:04.520Z,32.03
2018-06-28T16:10:32.624Z,32.03
2018-06-28T16:13:01.346Z,31.94
2018-06-28T16:15:29.600Z,31.70
2018-06-28T16:17:58.042Z,31.41
2018-06-28T16:20:26.501Z,31.26
2018-06-28T16:22:54.974Z,31.17
2018-06-28T16:25:23.401Z,31.12
2018-06-28T16:27:51.517Z,31.11
2018-06-28T16:30:19.966Z,31.08
2018-06-28T16:32:48.313Z,31.07
2018-06-28T16:35:16.765Z,31.06
2018-06-28T16:37:45.478Z,31.10
2018-06-28T16:40:13.936Z,31.07
2018-06-28T16:42:42.084Z,30.92
2018-06-28T16:45:10.529Z,30.75
2018-06-28T16:47:38.973Z,30.66
2018-06-28T16:50:07.105Z,30.56
2018-06-28T16:52:35.665Z,30.52
2018-06-28T16:55:03.922Z,30.47
2018-06-28T16:57:32.029Z,30.38
2018-06-28T17:00:00.766Z,30.25
2018-06-28T17:02:29.209Z,30.11
2018-06-28T17:04:57.664Z,29.99
2018-06-28T17:07:26.293Z,29.89
2018-06-28T17:09:54.780Z,29.85
2018-06-28T17:12:23.270Z,29.86
2018-06-28T17:14:52.059Z,29.88
2018-06-28T17:17:20.167Z,29.85
2018-06-28T17:19:48.641Z,29.81
2018-06-28T17:22:16.758Z,29.74
2018-06-28T17:24:45.206Z,29.66
2018-06-28T17:27:13.649Z,29.60
2018-06-28T17:29:42.103Z,29.60
2018-06-28T17:32:10.589Z,29.58
2018-06-28T17:34:38.869Z,29.50
2018-06-28T17:37:07.059Z,29.46
2018-06-28T17:39:35.169Z,29.36
2018-06-28T17:42:03.525Z,29.28
2018-06-28T17:44:31.679Z,29.24
2018-06-28T17:47:00.122Z,29.15
2018-06-28T17:49:28.576Z,29.09
2018-06-28T17:51:56.671Z,29.01
2018-06-28T17:54:25.297Z,28.95
2018-06-28T17:56:54.018Z,28.94
2018-06-28T17:59:22.479Z,28.93
2018-06-28T18:01:50.912Z,28.87
2018-06-28T18:04:19.655Z,28.81
2018-06-28T18:06:47.789Z,28.71
2018-06-28T18:09:16.230Z,28.66
2018-06-28T18:11:44.341Z,28.58
2018-06-28T18:14:12.469Z,28.53
2018-06-28T18:16:40.574Z,28.46
2018-06-28T18:19:09.013Z,28.40
2018-06-28T18:21:37.478Z,28.34
2018-06-28T18:24:05.842Z,28.28
2018-06-28T18:26:34.559Z,28.19
2018-06-28T18:29:02.982Z,28.05
2018-06-28T18:31:31.454Z,27.91
2018-06-28T18:33:59.565Z,27.83
2018-06-28T18:36:27.701Z,27.74
2018-06-28T18:38:56.206Z,27.68
2018-06-28T18:41:24.671Z,27.60
2018-06-28T18:43:52.776Z,27.54
2018-06-28T18:46:21.121Z,27.45
2018-06-28T18:48:49.545Z,27.38
2018-06-28T18:51:18.238Z,27.34
2018-06-28T18:53:46.666Z,27.28
2018-06-28T18:56:15.132Z,27.24
2018-06-28T18:58:43.233Z,27.20
2018-06-28T19:01:11.570Z,27.16
2018-06-28T19:03:39.681Z,27.12
2018-06-28T19:06:08.385Z,26.97
2018-06-28T19:08:37.118Z,26.79
2018-06-28T19:11:06.111Z,26.62
2018-06-28T19:13:38.745Z,26.41
2018-06-28T19:16:12.394Z,26.27
2018-06-28T19:18:40.819Z,26.09
2018-06-28T19:21:14.547Z,25.95
2018-06-28T19:23:48.161Z,25.84
2018-06-28T19:26:16.501Z,25.72
2018-06-28T19:28:45.260Z,25.55
2018-06-28T19:31:19.334Z,25.42
2018-06-28T19:33:47.839Z,25.32
2018-06-28T19:36:16.346Z,25.18
2018-06-28T19:38:50.212Z,25.07
2018-06-28T19:41:23.820Z,24.99
2018-06-28T19:43:53.325Z,24.91
2018-06-28T19:46:21.872Z,24.84
2018-06-28T19:48:50.326Z,24.72
2018-06-28T19:51:24.242Z,24.63
2018-06-28T19:53:52.366Z,24.57
2018-06-28T19:56:20.481Z,24.49
2018-06-28T19:58:49.104Z,24.44
2018-06-28T20:01:23.018Z,24.37
2018-06-28T20:03:56.639Z,24.28
2018-06-28T20:06:25.086Z,24.21
2018-06-28T20:08:53.239Z,24.17
2018-06-28T20:11:21.982Z,24.10
2018-06-28T20:13:55.499Z,24.06
2018-06-28T20:16:29.144Z,24.00
2018-06-28T20:19:03.136Z,23.93
2018-06-28T20:21:31.825Z,23.87
2018-06-28T20:24:00.303Z,23.83
2018-06-28T20:26:34.057Z,23.78
2018-06-28T20:29:07.898Z,23.70
2018-06-28T20:31:41.853Z,23.64
2018-06-28T20:34:12.046Z,23.61
2018-06-28T20:36:40.733Z,23.58
2018-06-28T20:39:09.878Z,23.53
2018-06-28T20:41:38.545Z,23.45
2018-06-28T20:44:07.114Z,23.37
2018-06-28T20:46:35.657Z,23.32
2018-06-28T20:49:03.841Z,23.31
2018-06-28T20:51:31.962Z,23.33
2018-06-28T20:54:00.410Z,23.33
2018-06-28T20:56:28.866Z,23.30
2018-06-28T20:58:57.361Z,23.25
2018-06-28T21:01:25.994Z,23.20
2018-06-28T21:03:55.479Z,23.17
2018-06-28T21:06:24.432Z,23.13
2018-06-28T21:08:52.953Z,23.07
2018-06-28T21:11:21.398Z,23.05
2018-06-28T21:13:49.856Z,23.03
2018-06-28T21:16:18.505Z,22.98
2018-06-28T21:18:46.618Z,22.93
2018-06-28T21:21:14.825Z,22.89
2018-06-28T21:23:43.530Z,22.85
2018-06-28T21:26:11.645Z,22.77
2018-06-28T21:28:40.051Z,22.66
2018-06-28T21:31:08.505Z,22.54
2018-06-28T21:33:36.638Z,22.38
2018-06-28T21:36:05.176Z,22.23
2018-06-28T21:38:33.642Z,22.08
2018-06-28T21:41:02.101Z,21.96
2018-06-28T21:43:30.556Z,21.90
2018-06-28T21:45:59.182Z,21.84
2018-06-28T21:48:27.305Z,21.74
2018-06-28T21:50:55.747Z,21.67
2018-06-28T21:53:24.221Z,21.61
2018-06-28T21:55:52.657Z,21.54
2018-06-28T21:58:21.129Z,21.46
2018-06-28T22:00:49.834Z,21.35
2018-06-28T22:03:17.973Z,21.28
2018-06-28T22:05:46.624Z,21.25
2018-06-28T22:08:14.849Z,21.23
2018-06-28T22:10:43.393Z,21.21
2018-06-28T22:13:11.861Z,21.17
2018-06-28T22:15:40.310Z,21.11
2018-06-28T22:18:08.965Z,21.05
2018-06-28T22:20:37.073Z,20.99
2018-06-28T22:23:05.199Z,20.95
2018-06-28T22:25:33.845Z,20.90
2018-06-28T22:28:02.307Z,20.83
2018-06-28T22:30:31.138Z,20.73
2018-06-28T22:32:59.593Z,20.68
2018-06-28T22:35:28.050Z,20.67
2018-06-28T22:37:56.429Z,20.61
2018-06-28T22:40:24.609Z,20.58
2018-06-28T22:42:53.073Z,20.55
2018-06-28T22:45:21.510Z,20.54
2018-06-28T22:47:49.969Z,20.56
2018-06-28T22:50:18.437Z,20.57
2018-06-28T22:52:46.746Z,20.57
2018-06-28T22:55:15.198Z,20.50
2018-06-28T22:57:43.645Z,20.43
2018-06-28T23:00:12.802Z,20.36
2018-06-28T23:02:41.449Z,20.34
2018-06-28T23:05:10.134Z,20.33
2018-06-28T23:07:38.882Z,20.29
2018-06-28T23:10:07.741Z,20.24
2018-06-28T23:12:36.417Z,20.20
2018-06-28T23:15:04.629Z,20.14
2018-06-28T23:17:32.746Z,20.11
2018-06-28T23:20:01.202Z,20.10
2018-06-28T23:22:38.954Z,20.10
2018-06-28T23:25:07.473Z,20.09
2018-06-28T23:27:35.853Z,20.08
2018-06-28T23:30:04.290Z,20.05
2018-06-28T23:32:32.751Z,20.03
2018-06-28T23:35:01.203Z,20.02
2018-06-28T23:37:29.640Z,20.00
2018-06-28T23:39:58.098Z,19.98
2018-06-28T23:42:26.745Z,19.95
2018-06-28T23:44:55.205Z,19.91
2018-06-28T23:47:23.318Z,19.88
2018-06-28T23:49:52.065Z,19.84
2018-06-28T23:52:20.837Z,19.76
2018-06-28T23:54:49.046Z,19.69
2018-06-28T23:57:17.721Z,19.61
2018-06-28T23:59:45.834Z,19.52
